Latest Weather Observations for Urandangi

IDQ60801

Issued at 10:05 am EST Saturday 19 April 2014 (issued every 30 minutes, with the page automatically refreshed every 10 minutes)

About weather observations | Map of weather stations | Latest weather observations for QLD | Other Formats
Station Details ID: 037058 Name: URANDANGI AERODROME Lat: -21.60 Lon: 138.37 Height: 178.6 m
Data from the previous 72 hours. | See also: Recent months at Urandangi
Date/Time
EST
Temp
°C
App
Temp
°C
Dew
Point
Rel
Hum
%
Delta-T
°C
Wind Press
QNH
hPa
Press
MSL
hPa
Rain
since 9 am
mm
Dir
 
Spd
km/h
Gust
km/h
Spd
kts
Gust
kts
19/10:00am 26.2 21.0 0.0 18 12.2 ESE 17 24 9 13 1018.1 1017.2 0.0
19/09:30am 23.8 18.6 0.2 21 10.9 SE 17 20 9 11 1018.1 - 0.0
19/09:00am 21.1 15.9 -0.2 24 9.5 SE 17 20 9 11 1018.1 1017.2 0.0
19/08:30am 19.4 14.5 -0.6 26 8.8 SE 15 19 8 10 1017.9 - 0.0
19/08:00am 17.1 13.3 -1.1 29 7.7 SE 9 13 5 7 1017.7 1016.9 0.0
19/07:30am 12.2 8.5 -2.8 35 5.8 SE 7 9 4 5 1017.5 - 0.0
19/07:00am 11.9 8.4 -2.7 36 5.7 SE 6 7 3 4 1017.4 1016.6 0.0
19/06:30am 12.5 8.5 -2.5 35 5.9 SE 9 11 5 6 1017.3 - 0.0
19/06:00am 13.5 9.9 -2.4 33 6.3 SE 7 9 4 5 1017.1 1016.3 0.0
19/05:30am 14.0 9.7 -2.0 33 6.5 SSE 11 13 6 7 1016.8 - 0.0
19/05:00am 13.2 8.8 -2.3 34 6.2 SSE 11 11 6 6 1016.7 1015.9 0.0
19/04:30am 14.1 10.5 -1.9 33 6.5 SE 7 9 4 5 1016.7 - 0.0
19/04:00am 15.1 10.8 -1.9 31 7.0 SE 11 15 6 8 1016.6 1015.8 0.0
19/03:30am 15.7 11.6 -2.7 28 7.5 SE 9 11 5 6 1016.6 - 0.0
19/03:00am 17.9 12.8 -1.9 26 8.3 SE 15 19 8 10 1016.6 1015.8 0.0
19/02:30am 17.8 13.1 -1.9 26 8.3 SE 13 19 7 10 1016.8 - 0.0
19/02:00am 17.6 12.4 -2.6 25 8.3 SE 15 19 8 10 1017.2 1016.4 0.0
19/01:30am 15.1 10.7 -2.3 30 7.1 SE 11 17 6 9 1017.5 - 0.0
19/01:00am 14.3 9.8 -3.5 29 7.0 SE 11 11 6 6 1017.6 1016.8 0.0
19/12:30am 15.7 11.6 -2.7 28 7.5 SSE 9 9 5 5 1017.9 - 0.0
19/12:00am 16.8 13.1 -3.3 25 8.1 SSE 7 9 4 5 1018.0 1017.1 0.0
 
Date/Time
EST
Temp
°C
App
Temp
°C
Dew
Point
Rel
Hum
%
Delta-T
°C
Wind Press
QNH
hPa
Press
MSL
hPa
Rain
since 9 am
mm
Dir
 
Spd
km/h
Gust
km/h
Spd
kts
Gust
kts
18/11:30pm 18.7 14.6 -2.8 23 8.9 SSE 9 11 5 6 1018.0 - 0.0
18/11:00pm 20.7 16.3 -2.4 21 9.9 SSE 11 13 6 7 1018.0 1017.1 0.0
18/10:30pm 22.8 18.0 -2.7 18 11.0 SSE 13 17 7 9 1017.7 - 0.0
18/10:00pm 23.6 18.4 -2.8 17 11.5 SSE 15 17 8 9 1017.6 1016.8 0.0
18/09:30pm 23.8 18.7 -1.9 18 11.4 SSE 15 17 8 9 1017.7 - 0.0
18/09:00pm 23.8 18.7 -1.9 18 11.4 SSE 15 17 8 9 1017.5 1016.7 0.0
18/08:30pm 23.0 18.3 -1.8 19 10.9 SSE 13 15 7 8 1017.4 - 0.0
18/08:00pm 23.9 19.1 -2.6 17 11.6 SSE 13 15 7 8 1017.1 1016.3 0.0
18/07:30pm 25.1 20.6 -3.3 15 12.4 SSE 11 13 6 7 1016.7 - 0.0
18/07:00pm 27.4 22.5 -3.4 13 13.7 SSE 13 19 7 10 1016.3 1015.5 0.0
18/06:30pm 28.7 22.9 -4.6 11 14.6 SE 17 28 9 15 1015.8 - 0.0
18/06:00pm 30.4 23.7 -4.6 10 15.6 SSE 22 33 12 18 1015.3 1014.4 0.0
18/05:30pm 31.1 23.9 -5.5 9 16.2 SE 24 33 13 18 1015.1 - 0.0
18/05:00pm 31.7 25.3 -5.0 9 16.4 SE 20 28 11 15 1015.0 1014.1 0.0
18/04:30pm 32.0 25.2 -4.8 9 16.6 SSE 22 33 12 18 1014.9 - 0.0
18/04:00pm 32.2 25.5 -4.6 9 16.6 SSE 22 32 12 17 1014.9 1014.0 0.0
18/03:30pm 32.4 25.3 -4.5 9 16.7 SE 24 32 13 17 1014.8 - 0.0
18/03:00pm 32.5 26.2 -4.4 9 16.8 SE 20 33 11 18 1015.0 1014.1 0.0
18/02:30pm 32.9 26.9 -2.7 10 16.7 SSE 19 28 10 15 1015.0 - 0.0
18/02:00pm 32.2 26.3 -2.0 11 16.1 SE 19 28 10 15 1015.3 1014.4 0.0
18/01:30pm 31.9 26.4 -2.2 11 16.0 SE 17 28 9 15 1015.7 - 0.0
18/01:00pm 32.3 27.0 -0.7 12 15.9 SE 17 28 9 15 1016.4 1015.6 0.0
18/12:30pm 31.5 25.7 -1.3 12 15.6 SE 19 22 10 12 1016.9 - 0.0
18/12:00pm 30.8 24.4 -1.9 12 15.3 SE 22 33 12 18 1017.2 1016.4 0.0
18/11:30am 30.1 23.8 -1.3 13 14.8 SE 22 32 12 17 1017.5 - 0.0
18/11:00am 29.1 22.9 -0.1 15 13.9 SE 22 32 12 17 1017.7 1016.9 0.0
18/10:30am 28.1 21.9 -0.1 16 13.4 ESE 22 32 12 17 1017.9 - 0.0
18/10:00am 26.5 20.8 -0.5 17 12.5 ESE 19 30 10 16 1018.1 1017.2 0.0
18/09:30am 24.6 18.9 -0.5 19 11.5 SE 19 24 10 13 1018.1 - 0.0
18/09:00am 22.1 16.4 -0.6 22 10.2 SSE 19 24 10 13 1017.7 1016.9 0.0
18/08:30am 20.4 15.5 -0.3 25 9.2 SE 15 20 8 11 1017.7 - 0.0
18/08:00am 18.3 14.2 0.0 29 8.0 SSE 11 15 6 8 1017.6 1016.8 0.0
18/07:30am 15.9 12.2 0.1 34 6.8 SSE 9 11 5 6 1017.4 - 0.0
18/07:00am 14.1 9.7 0.4 39 5.8 S 13 13 7 7 1017.3 1016.5 0.0
18/06:30am 14.6 10.9 0.1 37 6.2 SSE 9 9 5 5 1017.2 - 0.0
18/06:00am 15.3 11.7 0.3 36 6.4 SSE 9 11 5 6 1017.0 1016.2 0.0
18/05:30am 15.4 11.8 0.4 36 6.5 SSE 9 11 5 6 1016.8 - 0.0
18/05:00am 15.5 11.8 0.1 35 6.6 SSE 9 13 5 7 1016.7 1015.9 0.0
18/04:30am 15.7 12.1 0.3 35 6.7 SSE 9 11 5 6 1016.5 - 0.0
18/04:00am 16.4 12.7 0.1 33 7.0 SSE 9 11 5 6 1016.4 1015.6 0.0
18/03:30am 17.8 13.7 0.0 30 7.8 SE 11 11 6 6 1016.5 - 0.0
18/03:00am 19.3 15.2 -0.1 27 8.6 SE 11 13 6 7 1016.6 1015.8 0.0
18/02:30am 20.3 16.3 0.2 26 9.0 SSE 11 15 6 8 1016.8 - 0.0
18/02:00am 21.4 16.9 0.0 24 9.6 SSE 13 19 7 10 1016.9 1016.1 0.0
18/01:30am 21.0 16.7 0.8 26 9.2 SSE 13 17 7 9 1017.1 - 0.0
18/01:00am 20.9 16.9 0.2 25 9.3 SSE 11 13 6 7 1017.3 1016.5 0.0
18/12:30am 22.0 17.2 0.5 24 9.8 SSE 15 19 8 10 1017.3 - 0.0
18/12:00am 22.8 18.0 0.0 22 10.4 SSE 15 19 8 10 1017.4 1016.6 0.0
 
Date/Time
EST
Temp
°C
App
Temp
°C
Dew
Point
Rel
Hum
%
Delta-T
°C
Wind Press
QNH
hPa
Press
MSL
hPa
Rain
since 9 am
mm
Dir
 
Spd
km/h
Gust
km/h
Spd
kts
Gust
kts
17/11:30pm 23.6 18.8 0.0 21 10.8 S 15 22 8 12 1017.5 - 0.0
17/11:00pm 23.9 18.7 0.3 21 10.9 S 17 20 9 11 1017.5 1016.7 0.0
17/10:30pm 24.6 19.4 0.2 20 11.3 S 17 22 9 12 1017.7 - 0.0
17/10:00pm 24.9 19.7 0.4 20 11.4 S 17 22 9 12 1017.6 1016.8 0.0
17/09:30pm 25.0 20.3 1.2 21 11.3 SSE 15 20 8 11 1017.4 - 0.0
17/09:00pm 25.7 21.1 1.8 21 11.5 S 15 19 8 10 1017.2 1016.4 0.0
17/08:30pm 26.3 22.3 2.9 22 11.6 S 13 20 7 11 1016.9 - 0.0
17/08:00pm 25.8 22.5 4.3 25 10.8 S 11 13 6 7 1016.5 1015.7 0.0
17/07:30pm 26.9 23.1 4.0 23 11.6 S 13 15 7 8 1015.9 - 0.0
17/07:00pm 28.3 24.6 4.6 22 12.2 S 13 17 7 9 1015.4 1014.5 0.0
17/06:30pm 29.9 25.5 4.5 20 13.2 SSE 17 22 9 12 1015.0 - 0.0
17/06:00pm 31.2 26.4 4.9 19 13.9 SSE 19 28 10 15 1014.6 1013.7 0.0
17/05:30pm 32.1 27.7 4.8 18 14.4 SSE 17 20 9 11 1014.3 - 0.0
17/05:00pm 32.6 28.3 5.2 18 14.6 SE 17 22 9 12 1014.1 1013.2 0.0
17/04:30pm 32.9 28.3 5.5 18 14.7 SSE 19 32 10 17 1014.2 - 0.0
17/04:00pm 32.9 28.7 5.5 18 14.7 SE 17 26 9 14 1014.2 1013.3 0.0
17/03:30pm 32.9 28.3 5.5 18 14.7 SE 19 30 10 16 1014.4 - 0.0
17/03:00pm 33.4 28.9 5.9 18 14.9 SSE 19 24 10 13 1014.6 1013.7 0.0
17/02:30pm 33.0 28.2 5.5 18 14.8 SSE 20 28 11 15 1014.8 - 0.0
17/02:00pm 33.0 28.4 5.5 18 14.8 SE 19 26 10 14 1015.2 1014.3 0.0
17/01:30pm 31.9 26.7 5.4 19 14.1 SE 22 37 12 20 1015.6 - 0.0
17/01:00pm 32.3 27.5 5.7 19 14.3 SE 20 32 11 17 1016.0 1015.1 0.0
17/12:30pm 31.8 26.3 6.1 20 13.9 SE 24 35 13 19 1016.6 - 0.0
17/12:00pm 30.8 25.2 5.3 20 13.5 SE 24 33 13 18 1017.1 1016.3 0.0
17/11:30am 30.1 24.5 5.4 21 13.0 SE 24 35 13 19 1017.7 - 0.0
17/11:00am 29.2 24.0 5.3 22 12.5 ESE 22 32 12 17 1018.3 1017.4 0.0
17/10:30am 27.8 22.8 4.8 23 11.9 SE 20 26 11 14 1018.6 - 0.0
17/10:00am 26.8 21.8 4.6 24 11.3 SE 20 28 11 15 1018.6 1017.7 0.0
17/09:30am 24.8 19.3 4.0 26 10.4 SE 22 28 12 15 1018.6 - 0.0
17/09:00am 23.3 18.3 3.8 28 9.6 SE 19 26 10 14 1018.5 1017.6 0.0
17/08:30am 21.6 17.1 4.2 32 8.5 SSE 17 24 9 13 1018.3 - 0.0
17/08:00am 19.7 15.9 3.8 35 7.6 S 13 19 7 10 1018.2 1017.3 0.0
17/07:30am 17.6 14.5 3.5 39 6.6 S 9 13 5 7 1017.9 - 0.0
17/07:00am 17.1 13.7 3.8 41 6.2 SSE 11 13 6 7 1017.5 1016.7 0.0
17/06:30am 18.1 14.2 3.6 38 6.8 SSE 13 15 7 8 1017.3 - 0.0
17/06:00am 18.0 14.5 3.5 38 6.8 SSE 11 15 6 8 1017.0 1016.2 0.0
17/05:30am 18.6 15.1 3.6 37 7.1 SSE 11 15 6 8 1016.7 - 0.0
17/05:00am 18.3 15.2 3.8 38 6.9 SSE 9 13 5 7 1016.5 1015.7 0.0
17/04:30am 18.2 15.1 3.7 38 6.9 SSE 9 11 5 6 1016.2 - 0.0
17/04:00am 18.1 14.7 3.9 39 6.7 SSE 11 13 6 7 1016.1 1015.3 0.0
17/03:30am 18.2 15.1 3.7 38 6.9 SSE 9 11 5 6 1016.1 - 0.0
17/03:00am 19.1 15.6 3.7 36 7.3 SSE 11 13 6 7 1016.0 1015.1 0.0
17/02:30am 20.4 17.0 4.0 34 7.9 SSE 11 13 6 7 1015.9 - 0.0
17/02:00am 21.2 17.5 4.3 33 8.3 SSE 13 17 7 9 1015.8 1014.9 0.0
17/01:30am 21.7 17.9 3.9 31 8.7 S 13 17 7 9 1016.0 - 0.0
17/01:00am 23.2 18.7 4.2 29 9.4 SSE 17 22 9 12 1016.1 1015.3 0.0
17/12:30am 23.7 18.8 4.1 28 9.7 SSE 19 24 10 13 1016.2 - 0.0
17/12:00am 23.8 19.3 4.2 28 9.7 S 17 22 9 12 1016.1 1015.3 0.0
 
Date/Time
EST
Temp
°C
App
Temp
°C
Dew
Point
Rel
Hum
%
Delta-T
°C
Wind Press
QNH
hPa
Press
MSL
hPa
Rain
since 9 am
mm
Dir
 
Spd
km/h
Gust
km/h
Spd
kts
Gust
kts
16/11:30pm 24.1 20.0 4.5 28 9.8 S 15 22 8 12 1016.1 - 0.0
16/11:00pm 23.9 20.1 3.8 27 9.9 S 13 17 7 9 1016.3 1015.5 0.0
16/10:30pm 24.2 20.3 3.5 26 10.2 S 13 17 7 9 1016.1 - 0.0
16/10:00pm 24.4 20.8 3.1 25 10.4 S 11 15 6 8 1016.0 1015.1 0.0
16/09:30pm 24.9 21.0 3.5 25 10.6 S 13 17 7 9 1015.8 - 0.0
16/09:00pm 25.3 21.5 3.9 25 10.7 S 13 15 7 8 1015.6 1014.7 0.0
16/08:30pm 25.2 21.8 3.8 25 10.7 S 11 13 6 7 1015.3 - 0.0
16/08:00pm 26.1 22.8 4.6 25 10.9 S 11 15 6 8 1014.9 1014.0 0.0
16/07:30pm 26.6 23.2 3.8 23 11.5 S 11 15 6 8 1014.6 - 0.0
16/07:00pm 28.4 24.2 4.0 21 12.5 S 15 19 8 10 1014.2 1013.3 0.0
16/06:30pm 29.7 25.2 4.4 20 13.1 SSE 17 22 9 12 1013.9 - 0.0
16/06:00pm 30.9 25.9 4.6 19 13.8 SSE 20 30 11 16 1013.6 1012.7 0.0
16/05:30pm 31.7 26.3 4.5 18 14.3 SSE 22 32 12 17 1013.4 - 0.0
16/05:00pm 32.4 27.5 5.1 18 14.5 SSE 20 30 11 16 1013.2 1012.3 0.0
16/04:30pm 32.6 27.2 4.4 17 14.9 SE 22 30 12 16 1013.1 - 0.0
16/04:00pm 32.4 27.1 5.1 18 14.5 SSE 22 32 12 17 1013.2 1012.3 0.0
16/03:30pm 32.7 27.1 5.3 18 14.7 SSE 24 35 13 19 1013.2 - 0.0
16/03:00pm 33.2 27.3 5.7 18 14.8 SSE 26 41 14 22 1013.4 1012.5 0.0
16/02:30pm 33.1 28.1 6.4 19 14.6 SSE 22 33 12 18 1013.6 - 0.0
16/02:00pm 32.5 27.6 6.7 20 14.1 SE 22 33 12 18 1013.9 1013.0 0.0
16/01:30pm 32.8 27.7 7.6 21 14.0 SE 24 39 13 21 1014.3 - 0.0
16/01:00pm 31.9 26.4 7.5 22 13.5 SE 26 39 14 21 1014.7 1013.8 0.0
16/12:30pm 30.9 25.4 7.4 23 12.9 SE 26 37 14 20 1015.3 - 0.0
16/12:00pm 30.7 24.9 7.8 24 12.6 SE 28 37 15 20 1015.9 1015.0 0.0
16/11:30am 29.8 24.6 7.1 24 12.3 SE 24 33 13 18 1016.4 - 0.0
16/11:00am 28.5 22.9 7.1 26 11.5 SE 26 35 14 19 1016.7 1015.9 0.0
16/10:30am 27.1 21.4 6.5 27 10.9 SE 26 33 14 18 1017.1 - 0.0

Other Formats:

Comma delimited format used in spreadsheet applications
http://www.bom.gov.au/fwo/IDQ60801/IDQ60801.94344.axf

JavaScript Object Notation format (JSON) in row-major order
http://www.bom.gov.au/fwo/IDQ60801/IDQ60801.94344.json